Station: Hogan Island  

  Atmospheric Gas Attenuation - ITU Rec 676-11   ----------------- dB/100km -----------------
Date Time Temp RH % AH g/m3 Dew Point Wind Direction Speed kph Gust kph Barometer mB Rainfall Since 9am 24GHz 47GHz 76GHz 122GHz 134GHz 241GHz
08/05 12:30 14.7 67 8.44 8.6 82 95 1016.5 0 19.2 25.5 38.9 101.9 95.4 328.2
08/05 12:20 14.3 69 8.48 8.7 85 96 1015.9 0 19.3 25.7 39.2 102.8 96.4 331.6
08/05 12:10 14.5 67 8.33 8.5 80 91 1016.2 0 19.0 25.4 38.5 101.0 94.2 324.0
08/05 12:00 14.5 74 9.2 9.9 82 96 1015.9 0 20.8 26.8 42.0 110.3 105.7 364.0
08/05 11:50 14.3 72 8.85 9.3 85 91 1016 0 20.1 26.3 40.7 106.8 101.3 348.7
08/05 11:40 14.3 70 8.6 8.9 83 93 1015.8 0 19.6 25.8 39.7 104.1 98.0 337.0
08/05 11:30 14.6 70 8.76 9.2 83 98 1015.5 0 19.9 26.0 40.1 105.3 99.7 343.0
08/05 11:20 14.4 66 8.16 8.1 87 98 1015.3 0 18.6 25.1 37.8 99.2 92.1 316.4
08/05 11:10 14.4 68 8.41 8.6 85 98 1015.1 0 19.2 25.5 38.8 101.8 95.3 327.7
08/05 11:00 14.2 70 8.55 8.8 87 104 1014.8 0 19.5 25.8 39.5 103.5 97.4 334.9
08/05 10:50 14.4 70 8.65 9 83 93 1015.7 0 19.7 25.9 39.8 104.4 98.5 338.9
08/05 10:40 13.7 75 8.88 9.4 83 89 1015.9 0 20.2 26.5 41.1 107.9 102.5 352.7
08/05 10:30 13.9 76 9.11 9.7 78 95 1015.4 0 20.7 26.8 41.9 110.1 105.2 362.5
08/05 10:20 14.1 74 8.98 9.5 80 89 1015.7 0 20.4 26.5 41.3 108.4 103.3 355.5
08/05 10:10 14.3 73 8.97 9.5 82 91 1015.1 0 20.4 26.4 41.1 108.0 102.8 354.0
08/05 10:00 14.1 69 8.37 8.5 83 102 1015.1 0 19.1 25.5 38.8 101.8 95.2 327.2
08/05 09:50 14 73 8.81 9.2 78 93 1015.8 0 20.0 26.3 40.7 106.7 101.1 348.1
08/05 09:40 13.8 72 8.58 8.8 78 87 1015.8 0 19.5 26.0 39.8 104.5 98.3 338.3
08/05 09:30 13.9 74 8.87 9.3 80 95 1015.1 0 20.2 26.4 40.9 107.4 102.0 351.1
08/05 09:20 14.1 71 8.62 8.9 76 87 1015.8 0 19.6 25.9 39.8 104.5 98.5 338.8
08/05 09:10 14.1 73 8.86 9.3 72 80 1015.3 0 20.1 26.3 40.8 107.1 101.6 349.8
08/05 09:00 13.9 71 8.51 8.7 82 98 1015.2 6.4 19.4 25.8 39.5 103.6 97.2 334.4
08/05 08:50 13.6 72 8.47 8.7 72 87 1015.2 6.4 19.3 25.8 39.5 103.5 97.1 333.9
08/05 08:40 13.5 69 8.07 7.9 85 93 1015.2 6.4 18.5 25.2 37.9 99.4 92.0 315.9
08/05 08:30 13.6 71 8.36 8.4 78 95 1015 6.4 19.1 25.6 39.0 102.3 95.6 328.7
08/05 08:20 13.1 74 8.44 8.6 82 91 1014.8 6.4 19.3 25.9 39.6 103.8 97.3 334.5
08/05 08:10 13.3 78 9.01 9.5 74 83 1014.6 6.4 20.5 26.8 41.8 109.7 104.6 360.3
08/05 08:00 13 79 8.96 9.4 82 96 1014.2 6.4 20.4 26.8 41.7 109.5 104.3 359.2
08/05 07:50 13.1 80 9.13 9.7 80 93 1014.2 6.4 20.8 27.0 42.4 111.3 106.5 366.8
08/05 07:40 13.1 79 9.02 9.5 70 76 1014.3 6.4 20.5 26.8 41.9 110.1 105.0 361.6
08/05 07:30 12.9 76 8.57 8.8 80 93 1013.9 6.4 19.6 26.1 40.2 105.4 99.2 341.2
08/05 07:20 13 81 9.19 9.8 78 87 1013.6 6.4 20.9 27.1 42.6 112.0 107.4 369.9
08/05 07:10 12.7 90 10.02 11.1 72 82 1013.4 6.4 22.7 28.6 46.3 121.8 119.4 411.7
08/05 07:00 12.8 82 9.19 9.8 78 93 1013.3 6.4 20.9 27.2 42.7 112.3 107.7 370.8
08/05 06:50 12.3 85 9.23 9.9 83 91 1013.1 6.4 21.0 27.4 43.2 113.4 108.9 375.1
08/05 06:40 12.9 83 9.36 10.1 74 83 1013.2 6.4 21.3 27.4 43.4 114.0 109.9 378.4
08/05 06:30 12.9 87 9.81 10.8 76 91 1013 6.4 22.2 28.2 45.3 119.1 116.1 400.2
08/05 06:20 12.6 89 9.85 10.8 76 83 1013 6.4 22.3 28.3 45.6 120.0 117.1 403.7
08/05 06:10 13.4 79 9.18 9.8 80 91 1012.8 6.4 20.9 26.9 42.3 111.3 106.7 367.3
08/05 06:00 12.9 78 8.79 9.2 80 95 1012.3 6.4 20.0 26.4 41.0 107.6 102.0 351.1
08/05 05:50 13 83 9.41 10.2 83 91 1012.2 6.4 21.4 27.4 43.5 114.3 110.3 380.1
08/05 05:40 12.8 85 9.52 10.3 85 93 1012 6.4 21.6 27.7 44.1 115.8 112.1 386.3
08/05 05:30 12.4 90 9.83 10.8 76 102 1012 6.2 22.3 28.3 45.6 119.9 117.0 403.4
08/05 05:20 13 87 9.87 10.9 72 76 1012.4 6.2 22.4 28.2 45.4 119.5 116.7 402.4
08/05 05:10 13.3 82 9.47 10.3 78 85 1012.1 6.2 21.5 27.4 43.6 114.5 110.7 381.4
08/05 05:00 13.3 85 9.82 10.8 80 100 1012 6.2 22.2 28.0 45.0 118.4 115.5 398.3
08/05 04:50 13.1 85 9.7 10.6 82 91 1011.9 6.2 22.0 27.9 44.6 117.4 114.1 393.5
08/05 04:40 12.7 89 9.91 10.9 82 91 1011.9 6.2 22.5 28.4 45.8 120.4 117.7 405.8
08/05 04:30 13.3 84 9.71 10.7 80 96 1011.7 6.2 22.0 27.8 44.6 117.2 114.0 392.9
08/05 04:20 13.3 84 9.71 10.7 80 89 1011.5 6.2 22.0 27.8 44.5 117.1 113.9 392.8
08/05 04:10 13 84 9.53 10.4 87 98 1011.3 6.2 21.6 27.6 44.0 115.6 111.9 385.6
08/05 04:00 12.5 89 9.79 10.7 85 98 1011.1 6.2 22.2 28.2 45.3 119.2 116.2 400.7
08/05 03:50 11.9 91 9.64 10.5 95 100 1011.1 6.2 21.9 28.1 45.0 118.4 115.0 396.4
08/05 03:40 13.1 86 9.81 10.8 100 113 1010.6 6.2 22.2 28.0 45.0 118.5 115.5 398.4
08/05 03:30 13 88 9.98 11.1 83 100 1011.1 6.2 22.6 28.4 45.8 120.6 118.1 407.4
08/05 03:20 12.7 93 10.35 11.6 85 96 1011.3 6.2 23.4 29.1 47.6 125.4 123.8 427.3
08/05 03:10 13 87 9.87 10.9 85 98 1011.2 6.2 22.4 28.2 45.4 119.4 116.6 402.0
08/05 03:00 13 93 10.55 11.9 87 109 1011 6.2 23.8 29.3 48.3 127.2 126.2 435.5
08/05 02:50 12.9 90 10.14 11.3 85 96 1010.8 6.2 22.9 28.7 46.6 122.6 120.5 415.7
08/05 02:40 12.8 90 10.08 11.2 83 96 1010.8 6.2 22.8 28.6 46.4 122.0 119.8 413.3
08/05 02:30 13.1 92 10.5 11.8 89 104 1010.3 6.2 23.7 29.2 48.0 126.3 125.2 432.2
08/05 02:20 12.9 93 10.48 11.8 93 100 1010.2 6.2 23.7 29.2 48.0 126.4 125.3 432.3
08/05 02:10 12.8 91 10.19 11.4 95 109 1010.1 6 23.1 28.7 46.8 123.2 121.3 418.5
08/05 02:00 13 92 10.43 11.7 87 106 1010.6 6 23.6 29.1 47.8 125.7 124.4 429.4
08/05 01:50 12.9 94 10.6 12 85 91 1011 6 23.9 29.5 48.6 127.9 127.1 438.6
08/05 01:40 13.3 94 10.86 12.4 83 91 1011 6 24.5 29.8 49.5 130.3 130.1 449.3
08/05 01:30 12.6 96 10.62 12 93 117 1010.6 6 24.0 29.6 48.8 128.6 127.8 441.2
08/05 01:20 13.2 96 11.02 12.6 85 95 1011 5.8 24.8 30.1 50.2 132.3 132.6 458.0
08/05 01:10 12.9 97 10.93 12.4 89 98 1010.9 4.8 24.6 30.0 50.0 131.8 131.8 455.2
08/05 01:00 13.1 95 10.84 12.3 83 100 1011.2 5.6 24.4 29.8 49.5 130.4 130.2 449.6
08/05 00:50 12.8 97 10.87 12.3 96 102 1010.9 4.4 24.5 30.0 49.8 131.2 131.1 452.7
08/05 00:40 13 96 10.89 12.4 78 85 1011.4 4.6 24.6 30.0 49.8 131.2 131.1 452.7
08/05 00:30 13 97 11 12.5 85 102 1011.3 4.4 24.8 30.1 50.3 132.5 132.7 458.3
08/05 00:20 12.9 96 10.82 12.3 80 89 1011.4 4 24.4 29.9 49.6 130.5 130.3 449.8
08/05 00:10 13.1 95 10.84 12.3 83 89 1011.5 3.8 24.4 29.8 49.5 130.4 130.2 449.7
08/05 00:00 12.8 95 10.64 12 83 100 1011.4 3.2 24.0 29.6 48.8 128.6 127.8 441.3
07/05 23:50 12.6 97 10.73 12.1 83 96 1011.7 3.2 24.2 29.8 49.4 130.0 129.5 447.1
07/05 23:40 12.7 96 10.69 12.1 93 100 1011.5 3 24.1 29.7 49.1 129.3 128.7 444.4
07/05 23:30 12.9 94 10.6 12 87 100 1011.6 2.6 23.9 29.5 48.6 128.0 127.1 438.8
07/05 23:20 12.6 96 10.62 12 89 98 1011.9 2.6 24.0 29.6 48.9 128.7 127.9 441.6
07/05 23:10 12.5 96 10.56 11.9 91 96 1012 2.2 23.9 29.6 48.7 128.2 127.3 439.2
07/05 23:00 12.8 91 10.19 11.4 87 102 1012.2 2.2 23.1 28.8 46.9 123.5 121.5 419.1
07/05 22:50 12.1 95 10.19 11.3 91 107 1012 2.2 23.1 29.1 47.3 124.6 122.6 422.9
07/05 22:40 12.4 91 9.94 11 85 95 1012.5 2 22.5 28.5 46.1 121.3 118.6 409.0
07/05 22:30 12.2 93 10.04 11.1 83 98 1012.7 2 22.8 28.8 46.7 122.7 120.4 415.1
07/05 22:20 12 95 10.13 11.2 85 98 1012.7 1.8 23.0 29.0 47.2 124.1 122.0 420.7
07/05 22:10 12.1 94 10.08 11.2 72 87 1013.4 1.8 22.9 28.9 46.9 123.4 121.2 417.9
07/05 22:00 11.9 94 9.96 11 80 96 1013.4 1.8 22.6 28.8 46.5 122.4 119.8 413.0
07/05 21:50 11.7 95 9.94 10.9 76 87 1013.8 1.8 22.6 28.8 46.6 122.5 119.8 413.2
07/05 21:40 11.8 92 9.68 10.5 74 83 1014.1 1.6 22.0 28.3 45.4 119.4 116.0 399.8
07/05 21:30 11.8 90 9.47 10.2 80 98 1013.8 1.4 21.6 28.0 44.5 117.0 113.0 389.4
07/05 21:20 11.4 92 9.44 10.1 80 87 1013.9 1.4 21.5 28.1 44.6 117.2 113.2 390.0
07/05 21:10 11.8 91 9.58 10.4 69 82 1014.3 1.2 21.8 28.2 45.0 118.3 114.6 395.0
07/05 21:00 11 93 9.31 9.9 74 89 1014.3 1.2 21.3 28.0 44.3 116.4 112.0 385.7
07/05 20:50 11.4 91 9.34 10 78 83 1014.5 1 21.3 27.9 44.2 116.2 111.9 385.3
07/05 20:40 12 80 8.53 8.7 74 80 1014.5 0.8 19.5 26.4 40.5 106.2 99.9 343.4
07/05 20:30 11.7 80 8.37 8.4 76 91 1014.3 0.8 19.2 26.2 40.0 104.9 98.1 337.1
07/05 20:20 11.6 83 8.63 8.8 72 80 1014.7 0.8 19.8 26.6 41.1 107.9 101.8 350.0
07/05 20:10 11.3 84 8.57 8.7 72 80 1014.7 0.8 19.6 26.6 41.0 107.7 101.3 348.5
07/05 20:00 11.5 84 8.68 8.9 69 82 1014.8 0.8 19.9 26.8 41.4 108.6 102.6 352.9

Last Refresh: 08-May-2026 12:08:02

Bureau of Meteorology